createdAt,value
2023-04-18T00:02:09.094Z,10.67
2023-04-18T00:04:57.096Z,11.23
2023-04-18T00:07:43.748Z,10.40
2023-04-18T00:10:30.247Z,12.53
2023-04-18T00:13:19.274Z,11.43
2023-04-18T00:16:07.740Z,10.23
2023-04-18T00:18:57.156Z,11.33
2023-04-18T00:21:44.726Z,11.20
2023-04-18T00:24:31.503Z,10.93
2023-04-18T00:27:19.321Z,11.20
2023-04-18T00:30:06.409Z,10.43
2023-04-18T00:32:52.803Z,10.30
2023-04-18T00:35:40.621Z,10.23
2023-04-18T00:38:26.998Z,10.40
2023-04-18T00:41:13.553Z,10.83
2023-04-18T00:43:59.914Z,9.83
2023-04-18T00:46:46.370Z,9.40
2023-04-18T00:49:33.266Z,10.37
2023-04-18T00:52:21.540Z,9.47
2023-04-18T00:55:09.401Z,9.97
2023-04-18T00:57:56.182Z,9.40
2023-04-18T01:00:43.066Z,10.50
2023-04-18T01:03:30.045Z,11.03
2023-04-18T01:06:17.241Z,9.97
2023-04-18T01:09:05.774Z,10.73
2023-04-18T01:11:52.557Z,10.07
2023-04-18T01:14:43.230Z,11.73
2023-04-18T01:17:29.999Z,10.87
2023-04-18T01:20:16.915Z,12.53
2023-04-18T01:23:04.805Z,12.33
2023-04-18T01:25:52.803Z,13.93
2023-04-18T01:28:39.653Z,14.23
2023-04-18T01:31:26.015Z,14.00
2023-04-18T01:34:12.626Z,14.57
2023-04-18T01:36:59.428Z,15.77
2023-04-18T01:39:46.100Z,16.33
2023-04-18T01:42:34.059Z,18.17
2023-04-18T01:45:22.287Z,17.63
2023-04-18T01:48:09.021Z,18.40
2023-04-18T01:50:55.605Z,17.57
2023-04-18T01:53:41.985Z,20.07
2023-04-18T01:56:28.390Z,20.83
2023-04-18T01:59:16.143Z,19.83
2023-04-18T02:02:02.741Z,18.97
2023-04-18T02:04:49.718Z,20.43
2023-04-18T02:07:36.221Z,20.13
2023-04-18T02:10:23.044Z,19.93
2023-04-18T02:13:09.847Z,20.30
2023-04-18T02:15:57.721Z,21.43
2023-04-18T02:18:45.324Z,20.33
2023-04-18T02:21:31.685Z,21.20
2023-04-18T02:24:18.384Z,21.60
2023-04-18T02:27:05.226Z,22.57
2023-04-18T02:29:52.064Z,21.37
2023-04-18T02:32:39.759Z,20.77
2023-04-18T02:35:27.012Z,20.30
2023-04-18T02:38:13.796Z,21.37
2023-04-18T02:41:00.529Z,21.23
2023-04-18T02:43:47.065Z,20.93
2023-04-18T02:46:33.853Z,22.13
2023-04-18T02:49:21.767Z,20.47
2023-04-18T02:52:08.359Z,19.50
2023-04-18T02:54:55.576Z,20.00
2023-04-18T02:57:42.418Z,19.23
2023-04-18T03:00:28.733Z,19.77
2023-04-18T03:03:15.654Z,19.87
2023-04-18T03:06:03.501Z,18.77
2023-04-18T03:08:50.148Z,19.33
2023-04-18T03:11:36.553Z,20.47
2023-04-18T03:14:23.295Z,19.33
2023-04-18T03:17:09.667Z,18.53
2023-04-18T03:19:56.233Z,17.37
2023-04-18T03:22:44.048Z,18.73
2023-04-18T03:25:30.893Z,18.67
2023-04-18T03:28:17.694Z,19.27
2023-04-18T03:31:04.260Z,18.67
2023-04-18T03:33:51.598Z,18.67
2023-04-18T03:36:38.299Z,19.33
2023-04-18T03:39:26.514Z,17.53
2023-04-18T03:42:13.151Z,17.30
2023-04-18T03:44:59.515Z,16.90
2023-04-18T03:47:46.143Z,18.17
2023-04-18T03:50:33.060Z,18.10
2023-04-18T03:53:19.430Z,17.90
2023-04-18T03:56:07.504Z,17.57
2023-04-18T03:58:54.022Z,16.87
2023-04-18T04:01:40.489Z,18.37
2023-04-18T04:04:27.125Z,16.90
2023-04-18T04:07:13.774Z,17.03
2023-04-18T04:10:00.418Z,18.53
2023-04-18T04:12:48.234Z,17.93
2023-04-18T04:15:35.163Z,18.43
2023-04-18T04:18:25.382Z,18.20
2023-04-18T04:21:12.224Z,17.60
2023-04-18T04:23:58.675Z,18.27
2023-04-18T04:26:45.216Z,18.97
2023-04-18T04:29:32.930Z,17.97
2023-04-18T04:32:20.248Z,17.37
2023-04-18T04:35:08.389Z,19.00
2023-04-18T04:37:54.811Z,17.07
2023-04-18T04:40:41.315Z,18.13
2023-04-18T04:43:28.736Z,17.10
2023-04-18T04:46:16.382Z,17.40
2023-04-18T04:49:02.633Z,16.67
2023-04-18T04:51:49.188Z,17.07
2023-04-18T04:54:35.862Z,17.67
2023-04-18T04:57:22.459Z,16.67
2023-04-18T05:00:10.225Z,16.37
2023-04-18T05:02:58.410Z,16.70
2023-04-18T05:05:45.116Z,16.70
2023-04-18T05:08:31.507Z,16.03
2023-04-18T05:11:18.864Z,15.30
2023-04-18T05:14:05.309Z,15.17
2023-04-18T05:16:51.985Z,15.60
2023-04-18T05:19:40.714Z,15.73
2023-04-18T05:22:27.595Z,15.03
2023-04-18T05:25:14.434Z,16.00
2023-04-18T05:28:04.453Z,15.50
2023-04-18T05:30:51.107Z,15.03
2023-04-18T05:33:37.603Z,14.47
2023-04-18T05:36:25.242Z,14.20
2023-04-18T05:39:12.146Z,14.30
2023-04-18T05:41:58.560Z,14.37
2023-04-18T05:44:44.869Z,14.17
2023-04-18T05:47:31.221Z,14.47
2023-04-18T05:50:17.582Z,14.37
2023-04-18T05:53:05.322Z,14.03
2023-04-18T05:55:51.978Z,12.97
2023-04-18T05:58:38.302Z,12.60
2023-04-18T06:01:24.845Z,13.77
2023-04-18T06:04:14.702Z,12.77
2023-04-18T06:07:01.498Z,12.13
2023-04-18T06:09:49.732Z,13.17
2023-04-18T06:12:36.470Z,12.43
2023-04-18T06:15:22.973Z,12.80
2023-04-18T06:18:09.475Z,13.67
2023-04-18T06:20:56.113Z,12.70
2023-04-18T06:23:42.805Z,12.50
2023-04-18T06:26:31.986Z,12.97
2023-04-18T06:29:18.995Z,12.60
2023-04-18T06:32:06.419Z,11.93
2023-04-18T06:34:53.066Z,12.37
2023-04-18T06:37:43.910Z,12.20
2023-04-18T06:40:30.542Z,10.90
2023-04-18T06:43:18.267Z,10.87
2023-04-18T06:46:06.385Z,10.80
2023-04-18T06:48:52.808Z,11.90
2023-04-18T06:51:39.118Z,11.47
2023-04-18T06:54:27.168Z,11.13
2023-04-18T06:57:14.061Z,12.27
2023-04-18T07:00:01.738Z,11.33
2023-04-18T07:02:48.771Z,12.13
2023-04-18T07:05:35.311Z,10.83
2023-04-18T07:08:21.703Z,11.83
2023-04-18T07:11:08.124Z,10.87
2023-04-18T07:13:54.529Z,10.30
2023-04-18T07:16:42.602Z,10.20
2023-04-18T07:19:29.245Z,11.03
2023-04-18T07:22:15.667Z,11.50
2023-04-18T07:25:02.207Z,11.00
2023-04-18T07:27:48.674Z,9.83
2023-04-18T07:30:35.044Z,10.27
2023-04-18T07:33:22.657Z,10.77
2023-04-18T07:36:09.402Z,10.07
2023-04-18T07:38:55.953Z,9.73
2023-04-18T07:41:42.342Z,9.63
2023-04-18T07:44:28.876Z,8.77
2023-04-18T07:47:15.346Z,7.33
2023-04-18T07:50:04.097Z,7.13
2023-04-18T07:52:50.671Z,6.47
2023-04-18T07:55:37.130Z,5.93
2023-04-18T07:58:23.614Z,8.17
2023-04-18T08:01:13.508Z,7.40
2023-04-18T08:04:02.091Z,8.07
2023-04-18T08:06:51.688Z,8.00
2023-04-18T08:09:38.322Z,8.07
2023-04-18T08:12:24.910Z,7.57
2023-04-18T08:15:12.592Z,7.47
2023-04-18T08:17:59.653Z,7.47
2023-04-18T08:20:46.398Z,6.47
2023-04-18T08:23:34.280Z,7.33
2023-04-18T08:26:22.973Z,6.63
2023-04-18T08:29:09.639Z,7.00
2023-04-18T08:31:56.057Z,7.70
2023-04-18T08:34:43.422Z,7.53
2023-04-18T08:37:30.247Z,7.90
2023-04-18T08:40:18.555Z,7.73
2023-04-18T08:43:09.343Z,8.20
2023-04-18T08:46:00.215Z,7.80
2023-04-18T08:48:49.694Z,7.20
2023-04-18T08:51:38.797Z,9.13
2023-04-18T08:54:27.253Z,9.13
2023-04-18T08:57:17.395Z,7.90
2023-04-18T09:00:10.053Z,7.60
2023-04-18T09:02:57.621Z,7.03
2023-04-18T09:05:46.807Z,7.60
2023-04-18T09:08:33.339Z,7.93
2023-04-18T09:11:28.678Z,6.70
2023-04-18T09:14:25.826Z,7.75
2023-04-18T09:17:14.376Z,6.83
2023-04-18T09:20:01.491Z,7.63
2023-04-18T09:22:51.260Z,7.97
2023-04-18T09:25:41.643Z,7.97
2023-04-18T09:28:31.941Z,8.20
2023-04-18T09:31:22.619Z,7.73
2023-04-18T09:34:24.777Z,7.23
2023-04-18T09:37:13.380Z,7.27
2023-04-18T09:39:59.900Z,7.10
2023-04-18T09:42:46.580Z,6.93
2023-04-18T09:45:33.372Z,7.33
2023-04-18T09:48:21.192Z,7.63
2023-04-18T09:51:09.205Z,8.30
2023-04-18T09:53:55.780Z,7.10
2023-04-18T09:56:44.589Z,8.10
2023-04-18T09:59:42.802Z,7.93
2023-04-18T10:02:35.048Z,7.47
2023-04-18T10:05:26.478Z,8.20
2023-04-18T10:08:14.791Z,7.77
2023-04-18T10:11:01.320Z,8.47
2023-04-18T10:13:49.803Z,8.17
2023-04-18T10:16:37.275Z,7.70
2023-04-18T10:19:25.775Z,7.80
2023-04-18T10:22:14.122Z,7.83
2023-04-18T10:25:00.596Z,7.67
2023-04-18T10:27:58.848Z,8.13
2023-04-18T10:31:03.991Z,7.33
2023-04-18T10:34:03.872Z,7.20
2023-04-18T10:37:05.297Z,7.80
2023-04-18T10:39:58.710Z,7.40
2023-04-18T10:43:00.465Z,8.23
2023-04-18T10:46:20.446Z,8.87
2023-04-18T10:49:16.170Z,7.80
2023-04-18T10:52:05.965Z,7.50
2023-04-18T10:54:59.355Z,8.30
2023-04-18T10:57:47.378Z,8.43
2023-04-18T11:00:33.907Z,8.60
2023-04-18T11:03:20.571Z,8.63
2023-04-18T11:06:07.303Z,7.93
2023-04-18T11:09:09.617Z,8.33
2023-04-18T11:12:08.875Z,8.60
2023-04-18T11:14:55.274Z,7.97
2023-04-18T11:17:42.117Z,8.43
2023-04-18T11:20:29.047Z,8.40
2023-04-18T11:23:20.955Z,8.50
2023-04-18T11:26:08.664Z,8.47
2023-04-18T11:28:59.355Z,7.60
2023-04-18T11:31:52.021Z,8.17
2023-04-18T11:34:38.669Z,8.60
2023-04-18T11:37:25.125Z,8.10
2023-04-18T11:40:12.154Z,9.20
2023-04-18T11:43:02.574Z,9.30
2023-04-18T11:45:54.369Z,8.67
2023-04-18T11:48:42.762Z,8.43
2023-04-18T11:51:34.376Z,8.50
2023-04-18T11:54:37.121Z,9.10
2023-04-18T11:57:25.538Z,9.00
2023-04-18T12:00:13.458Z,9.07
2023-04-18T12:03:02.817Z,8.23
2023-04-18T12:05:49.641Z,8.07
2023-04-18T12:08:36.707Z,8.67
2023-04-18T12:11:23.339Z,8.90
2023-04-18T12:14:20.701Z,8.70
2023-04-18T12:17:07.084Z,8.57
2023-04-18T12:19:55.458Z,9.10
2023-04-18T12:22:43.809Z,8.73
2023-04-18T12:25:31.603Z,8.83
2023-04-18T12:28:19.904Z,9.63
2023-04-18T12:31:07.389Z,9.00
2023-04-18T12:33:54.387Z,10.00
2023-04-18T12:36:42.924Z,8.97
2023-04-18T12:39:29.438Z,9.43
2023-04-18T12:42:15.822Z,9.20
2023-04-18T12:45:03.367Z,9.57
2023-04-18T12:47:51.338Z,8.97
2023-04-18T12:50:38.112Z,9.40
2023-04-18T12:53:25.790Z,8.87
2023-04-18T12:56:12.486Z,8.73
2023-04-18T12:58:59.235Z,9.00
2023-04-18T13:01:45.735Z,10.50
2023-04-18T13:04:32.418Z,9.20
2023-04-18T13:07:19.529Z,9.17
2023-04-18T13:10:08.576Z,9.77
2023-04-18T13:12:55.634Z,10.20
2023-04-18T13:15:42.548Z,9.90
2023-04-18T13:18:29.196Z,9.43
2023-04-18T13:21:18.886Z,9.70
2023-04-18T13:24:05.972Z,9.53
2023-04-18T13:26:54.318Z,9.80
2023-04-18T13:29:42.379Z,9.40
2023-04-18T13:32:28.893Z,9.07
2023-04-18T13:35:15.226Z,9.17
2023-04-18T13:38:01.608Z,9.60
2023-04-18T13:40:48.559Z,11.63
2023-04-18T13:43:37.414Z,9.23
2023-04-18T13:46:26.500Z,9.17
2023-04-18T13:49:13.700Z,10.53
2023-04-18T13:52:00.653Z,9.90
2023-04-18T13:54:48.112Z,9.70
2023-04-18T13:57:35.821Z,9.23
2023-04-18T14:00:23.697Z,9.47
2023-04-18T14:03:11.437Z,9.90
2023-04-18T14:05:59.363Z,10.27
2023-04-18T14:08:46.215Z,9.90
2023-04-18T14:11:32.762Z,11.23
2023-04-18T14:14:19.239Z,10.33
2023-04-18T14:17:07.502Z,10.63
2023-04-18T14:19:54.187Z,10.03
2023-04-18T14:22:43.138Z,10.67
2023-04-18T14:25:32.541Z,10.33
2023-04-18T14:28:21.710Z,11.30
2023-04-18T14:31:09.826Z,10.53
2023-04-18T14:33:58.008Z,11.87
2023-04-18T14:36:44.564Z,12.30
2023-04-18T14:39:31.075Z,10.50
2023-04-18T14:42:17.848Z,11.37
2023-04-18T14:45:05.105Z,11.43
2023-04-18T14:47:52.114Z,10.80
2023-04-18T14:50:39.993Z,12.60
2023-04-18T14:53:27.409Z,11.57
2023-04-18T14:56:15.042Z,11.87
2023-04-18T14:59:02.667Z,12.03
2023-04-18T15:01:49.460Z,11.60
2023-04-18T15:04:35.784Z,11.70
2023-04-18T15:07:24.114Z,11.47
2023-04-18T15:10:12.566Z,12.27
2023-04-18T15:12:59.238Z,12.90
2023-04-18T15:15:52.899Z,13.07
2023-04-18T15:18:39.555Z,12.90
2023-04-18T15:21:26.008Z,12.77
2023-04-18T15:24:14.092Z,12.60
2023-04-18T15:27:01.344Z,12.87
2023-04-18T15:29:48.050Z,13.00
2023-04-18T15:32:34.629Z,12.27
2023-04-18T15:35:21.182Z,13.13
2023-04-18T15:38:07.541Z,12.67
2023-04-18T15:40:55.273Z,13.23
2023-04-18T15:43:42.024Z,12.77
2023-04-18T15:46:28.736Z,11.73
2023-04-18T15:49:15.191Z,12.50
2023-04-18T15:52:01.768Z,12.33
2023-04-18T15:54:48.798Z,12.27
2023-04-18T15:57:36.695Z,12.20
2023-04-18T16:00:23.929Z,13.03
2023-04-18T16:03:10.918Z,11.97
2023-04-18T16:05:57.565Z,11.90
2023-04-18T16:08:43.790Z,12.17
2023-04-18T16:11:30.098Z,12.07
2023-04-18T16:14:18.259Z,13.23
2023-04-18T16:17:04.657Z,13.00
2023-04-18T16:19:51.057Z,13.40
2023-04-18T16:22:37.665Z,11.97
2023-04-18T16:25:24.129Z,13.20
2023-04-18T16:28:10.532Z,13.13
2023-04-18T16:30:58.289Z,13.47
2023-04-18T16:33:45.445Z,12.83
2023-04-18T16:36:34.568Z,13.77
2023-04-18T16:39:20.941Z,13.37
2023-04-18T16:42:07.432Z,14.23
2023-04-18T16:44:53.731Z,13.00
2023-04-18T16:47:43.302Z,13.00
2023-04-18T16:50:29.827Z,14.33
2023-04-18T16:53:16.135Z,12.83
2023-04-18T16:56:03.197Z,12.77
2023-04-18T16:58:49.779Z,13.00
2023-04-18T17:01:36.461Z,12.67
2023-04-18T17:04:26.882Z,13.47
2023-04-18T17:07:13.706Z,11.90
2023-04-18T17:10:00.473Z,12.13
2023-04-18T17:12:49.319Z,13.00
2023-04-18T17:15:36.454Z,12.53
2023-04-18T17:18:22.986Z,13.10
2023-04-18T17:21:12.486Z,12.47
2023-04-18T17:24:03.387Z,13.37
2023-04-18T17:26:50.628Z,12.83
2023-04-18T17:29:37.378Z,13.07
2023-04-18T17:32:24.190Z,15.90
2023-04-18T17:35:12.036Z,13.17
2023-04-18T17:37:59.917Z,14.97
2023-04-18T17:40:46.342Z,13.83
2023-04-18T17:43:32.778Z,16.60
2023-04-18T17:46:19.089Z,15.87
2023-04-18T17:49:05.614Z,15.17
2023-04-18T17:51:52.552Z,14.07
2023-04-18T17:54:40.243Z,14.73
2023-04-18T17:57:27.126Z,13.53
2023-04-18T18:00:15.714Z,13.97
2023-04-18T18:03:02.446Z,13.53
2023-04-18T18:05:51.740Z,14.23
2023-04-18T18:08:38.327Z,14.23
2023-04-18T18:11:27.665Z,14.77
2023-04-18T18:14:14.892Z,15.10
2023-04-18T18:17:01.581Z,15.13
2023-04-18T18:19:47.821Z,14.70
2023-04-18T18:22:34.302Z,14.80
2023-04-18T18:25:21.602Z,14.30
2023-04-18T18:28:09.584Z,15.07
2023-04-18T18:30:55.919Z,14.63
2023-04-18T18:33:42.364Z,13.83
2023-04-18T18:36:28.906Z,13.90
2023-04-18T18:39:16.472Z,13.93
2023-04-18T18:42:03.060Z,14.47
2023-04-18T18:44:50.964Z,14.93
2023-04-18T18:47:39.675Z,15.53
2023-04-18T18:50:26.778Z,16.70
2023-04-18T18:53:16.578Z,15.00
2023-04-18T18:56:03.842Z,13.67
2023-04-18T18:58:50.224Z,13.70
2023-04-18T19:01:38.067Z,12.53
2023-04-18T19:04:25.683Z,12.57
2023-04-18T19:07:12.611Z,13.80
2023-04-18T19:10:00.442Z,14.03
2023-04-18T19:12:54.725Z,13.50
2023-04-18T19:15:41.560Z,13.47
2023-04-18T19:18:29.333Z,12.53
2023-04-18T19:21:16.393Z,12.83
2023-04-18T19:24:03.404Z,13.00
2023-04-18T19:26:50.333Z,12.93
2023-04-18T19:29:37.574Z,13.83
2023-04-18T19:32:24.652Z,14.47
2023-04-18T19:35:13.327Z,13.43
2023-04-18T19:38:01.990Z,13.40
2023-04-18T19:40:48.855Z,13.03
2023-04-18T19:43:38.375Z,12.43
2023-04-18T19:46:24.947Z,12.73
2023-04-18T19:49:11.579Z,13.07
2023-04-18T19:51:59.620Z,13.33
2023-04-18T19:54:46.385Z,13.13
2023-04-18T19:57:38.987Z,12.10
2023-04-18T20:00:25.700Z,11.57
2023-04-18T20:03:12.339Z,12.73
2023-04-18T20:05:58.935Z,13.03
2023-04-18T20:08:46.803Z,12.47
2023-04-18T20:11:33.526Z,11.47
2023-04-18T20:14:19.865Z,12.70
2023-04-18T20:17:06.172Z,12.43
2023-04-18T20:19:52.710Z,11.53
2023-04-18T20:22:40.356Z,11.90
2023-04-18T20:25:28.238Z,12.47
2023-04-18T20:28:14.692Z,11.80
2023-04-18T20:31:01.342Z,12.10
2023-04-18T20:33:47.601Z,11.80
2023-04-18T20:36:34.377Z,11.27
2023-04-18T20:39:20.940Z,10.67
2023-04-18T20:42:14.207Z,10.00
2023-04-18T20:45:00.683Z,9.97
2023-04-18T20:47:47.288Z,10.07
2023-04-18T20:50:33.757Z,8.33
2023-04-18T20:53:21.526Z,9.40
2023-04-18T20:56:07.892Z,8.57
2023-04-18T20:58:55.689Z,9.00
2023-04-18T21:01:42.662Z,10.00
2023-04-18T21:04:29.339Z,9.13
2023-04-18T21:07:16.455Z,7.70
2023-04-18T21:10:03.492Z,7.83
2023-04-18T21:12:50.063Z,7.03
2023-04-18T21:15:38.104Z,6.07
2023-04-18T21:18:24.760Z,5.90
2023-04-18T21:21:11.711Z,5.33
2023-04-18T21:23:58.140Z,5.10
2023-04-18T21:26:44.559Z,5.37
2023-04-18T21:29:31.030Z,4.93
2023-04-18T21:32:18.791Z,4.90
2023-04-18T21:35:05.926Z,5.77
2023-04-18T21:37:52.322Z,5.10
2023-04-18T21:40:38.760Z,4.53
2023-04-18T21:43:26.188Z,4.43
2023-04-18T21:46:13.061Z,5.60
2023-04-18T21:49:00.828Z,5.13
2023-04-18T21:51:48.865Z,5.03
2023-04-18T21:54:35.347Z,5.13
2023-04-18T21:57:21.749Z,4.57
2023-04-18T22:00:11.194Z,4.90
2023-04-18T22:02:59.306Z,4.83
2023-04-18T22:05:47.529Z,4.67
2023-04-18T22:08:34.273Z,5.00
2023-04-18T22:11:23.533Z,4.70
2023-04-18T22:14:10.795Z,5.37
2023-04-18T22:16:58.717Z,4.83
2023-04-18T22:19:45.041Z,5.33
2023-04-18T22:22:32.908Z,5.00
2023-04-18T22:25:19.552Z,5.00
2023-04-18T22:28:06.110Z,5.03
2023-04-18T22:30:52.783Z,4.90
2023-04-18T22:33:39.296Z,5.30
2023-04-18T22:36:27.522Z,5.03
2023-04-18T22:39:15.607Z,5.20
2023-04-18T22:42:02.598Z,5.43
2023-04-18T22:44:49.177Z,4.87
2023-04-18T22:47:35.509Z,4.87
2023-04-18T22:50:22.032Z,4.57
2023-04-18T22:53:08.615Z,4.57
2023-04-18T22:55:56.413Z,5.00
2023-04-18T22:58:42.866Z,5.00
2023-04-18T23:01:29.497Z,4.37
2023-04-18T23:04:16.155Z,4.80
2023-04-18T23:07:02.841Z,4.67
2023-04-18T23:09:49.299Z,4.70
2023-04-18T23:12:37.051Z,5.23
2023-04-18T23:15:23.919Z,4.50
2023-04-18T23:18:10.335Z,4.60
2023-04-18T23:20:56.746Z,4.70
2023-04-18T23:23:43.140Z,4.70
2023-04-18T23:26:29.447Z,5.17
2023-04-18T23:29:17.153Z,4.70
2023-04-18T23:32:03.871Z,4.30
2023-04-18T23:34:50.201Z,5.10
2023-04-18T23:37:36.776Z,5.40
2023-04-18T23:40:24.337Z,4.23
2023-04-18T23:43:11.120Z,4.63
2023-04-18T23:45:58.925Z,4.50
2023-04-18T23:48:45.587Z,4.60
2023-04-18T23:51:32.162Z,4.20
2023-04-18T23:54:20.420Z,4.33
2023-04-18T23:57:07.087Z,4.80
2023-04-18T23:59:53.795Z,4.60
